createdAt,value
2018-01-06T00:00:10.970Z,3.30
2018-01-06T00:09:51.647Z,3.29
2018-01-06T00:19:20.543Z,3.30
2018-01-06T00:29:01.292Z,3.30
2018-01-06T00:38:30.144Z,3.30
2018-01-06T00:48:06.247Z,3.30
2018-01-06T00:57:42.888Z,3.29
2018-01-06T01:07:19.898Z,3.29
2018-01-06T01:16:56.886Z,3.29
2018-01-06T01:26:33.551Z,3.30
2018-01-06T01:36:10.226Z,3.28
2018-01-06T01:45:46.660Z,3.29
2018-01-06T01:55:23.799Z,3.29
2018-01-06T02:05:00.722Z,3.29
2018-01-06T02:14:37.657Z,3.29
2018-01-06T02:24:14.389Z,3.29
2018-01-06T02:33:51.517Z,3.29
2018-01-06T02:43:28.159Z,3.29
2018-01-06T02:53:08.869Z,3.29
2018-01-06T03:02:38.195Z,3.29
2018-01-06T03:12:15.261Z,3.29
2018-01-06T03:21:51.888Z,3.29
2018-01-06T03:31:33.106Z,3.29
2018-01-06T03:41:02.604Z,3.29
2018-01-06T03:50:38.653Z,3.28
2018-01-06T04:00:15.454Z,3.28
2018-01-06T04:09:52.278Z,3.29
2018-01-06T04:19:28.851Z,3.29
2018-01-06T04:29:05.876Z,3.28
2018-01-06T04:38:42.575Z,3.29
2018-01-06T04:48:19.889Z,3.29
2018-01-06T04:57:56.530Z,3.28
2018-01-06T05:07:33.340Z,3.28
2018-01-06T05:17:09.906Z,3.29
2018-01-06T05:26:46.491Z,3.29
2018-01-06T05:36:22.403Z,3.10
2018-01-06T05:46:02.872Z,3.29
2018-01-06T05:55:39.694Z,3.28
2018-01-06T06:05:16.468Z,3.28
2018-01-06T06:14:53.138Z,3.28
2018-01-06T06:24:29.604Z,3.28
2018-01-06T06:34:05.957Z,3.28
2018-01-06T06:43:42.869Z,3.28
2018-01-06T06:53:19.501Z,3.28
2018-01-06T07:02:56.392Z,3.29
2018-01-06T07:12:37.576Z,3.29
2018-01-06T07:22:06.201Z,3.30
2018-01-06T07:31:43.450Z,3.31
2018-01-06T07:41:20.160Z,3.32
2018-01-06T07:50:56.088Z,3.31
2018-01-06T08:00:36.791Z,3.34
2018-01-06T08:10:12.961Z,3.34
2018-01-06T08:19:49.375Z,3.35
2018-01-06T08:29:26.199Z,3.34
2018-01-06T08:39:03.241Z,3.34
2018-01-06T08:48:39.959Z,3.34
2018-01-06T08:58:16.680Z,3.34
2018-01-06T09:07:53.630Z,3.34
2018-01-06T09:17:30.729Z,3.35
2018-01-06T09:27:08.140Z,3.36
2018-01-06T09:36:46.175Z,3.34
2018-01-06T09:46:23.160Z,3.36
2018-01-06T09:56:00.661Z,3.36
2018-01-06T10:05:37.834Z,3.37
2018-01-06T10:15:15.585Z,3.34
2018-01-06T10:24:52.587Z,3.37
2018-01-06T10:34:30.156Z,3.37
2018-01-06T10:44:06.689Z,3.37
2018-01-06T10:53:43.526Z,3.38
2018-01-06T11:03:23.725Z,3.39
2018-01-06T11:12:52.692Z,3.40
2018-01-06T11:22:29.593Z,3.40
2018-01-06T11:32:10.531Z,3.39
2018-01-06T11:41:39.880Z,3.39
2018-01-06T11:51:16.677Z,3.40
2018-01-06T12:00:56.945Z,3.40
2018-01-06T12:10:24.872Z,3.39
2018-01-06T12:20:00.763Z,3.38
2018-01-06T12:29:37.380Z,3.39
2018-01-06T12:39:15.377Z,3.39
2018-01-06T12:48:55.104Z,3.40
2018-01-06T12:58:35.741Z,3.39
2018-01-06T13:08:04.868Z,3.39
2018-01-06T13:17:39.685Z,3.38
2018-01-06T13:27:14.291Z,3.40
2018-01-06T13:36:48.934Z,3.39
2018-01-06T13:46:24.852Z,3.39
2018-01-06T13:56:01.213Z,3.39
2018-01-06T14:05:38.256Z,3.39
2018-01-06T14:15:14.366Z,3.33
2018-01-06T14:24:50.391Z,3.39
2018-01-06T14:34:26.611Z,3.38
2018-01-06T14:44:02.028Z,3.36
2018-01-06T14:53:42.353Z,3.37
2018-01-06T15:03:18.339Z,3.39
2018-01-06T15:12:53.654Z,3.39
2018-01-06T15:22:29.262Z,3.38
2018-01-06T15:32:05.059Z,3.37
2018-01-06T15:41:40.039Z,3.37
2018-01-06T15:51:15.575Z,3.37
2018-01-06T16:00:51.275Z,3.36
2018-01-06T16:10:27.887Z,3.36
2018-01-06T16:20:03.919Z,3.36
2018-01-06T16:29:39.892Z,3.36
2018-01-06T16:39:20.350Z,3.35
2018-01-06T16:48:48.775Z,3.35
2018-01-06T16:58:25.125Z,3.35
2018-01-06T17:08:01.509Z,3.35
2018-01-06T17:17:38.036Z,3.34
2018-01-06T17:27:16.842Z,3.36
2018-01-06T17:36:46.519Z,3.34
2018-01-06T17:46:22.834Z,3.34
2018-01-06T17:55:59.066Z,3.34
2018-01-06T18:05:35.363Z,3.34
2018-01-06T18:15:11.714Z,3.33
2018-01-06T18:24:47.626Z,3.34
2018-01-06T18:34:24.408Z,3.34
2018-01-06T18:44:00.693Z,3.30
2018-01-06T18:53:36.207Z,3.34
2018-01-06T19:03:12.595Z,3.34
2018-01-06T19:12:49.264Z,3.34
2018-01-06T19:22:25.168Z,3.34
2018-01-06T19:32:01.915Z,3.34
2018-01-06T19:41:38.457Z,3.34
2018-01-06T19:51:15.147Z,3.33
2018-01-06T20:00:51.437Z,3.33
2018-01-06T20:10:28.420Z,3.34
2018-01-06T20:20:02.263Z,3.33
2018-01-06T20:29:38.556Z,3.33
2018-01-06T20:39:14.901Z,3.33
2018-01-06T20:48:50.747Z,3.33
2018-01-06T20:58:27.452Z,3.33
2018-01-06T21:08:04.092Z,3.33
2018-01-06T21:17:40.076Z,3.33
2018-01-06T21:27:16.308Z,3.33
2018-01-06T21:36:52.827Z,3.33
2018-01-06T21:46:29.403Z,3.33
2018-01-06T21:56:05.996Z,3.33
2018-01-06T22:05:46.702Z,3.33
2018-01-06T22:15:15.509Z,3.33
2018-01-06T22:24:52.174Z,3.33
2018-01-06T22:34:28.630Z,3.32
2018-01-06T22:44:04.980Z,3.32
2018-01-06T22:53:41.562Z,3.32
2018-01-06T23:03:17.951Z,3.32
2018-01-06T23:12:54.692Z,3.31
2018-01-06T23:22:30.576Z,3.32
2018-01-06T23:32:07.271Z,3.32
2018-01-06T23:41:44.410Z,3.32
2018-01-06T23:51:20.491Z,3.31
